Time;durP1;ratioP1;P1;durP2;ratioP2;P2;SDS_P1;SDS_P2;PMS_P1;PMS_P2;Temp;Humidity;BMP_temperature;BMP_pressure;BME280_temperature;BME280_humidity;BME280_pressure;Samples;Min_cycle;Max_cycle;Signal;HPM_P1;HPM_P2
2021/12/29 00:00:40;;;;;;;60.47;34.28;;;;;;;;;;2060473;28;20678;-58
2021/12/29 00:01:40;;;;;;;50.95;33.25;;;;;;;;;;2069608;28;20242;-61
2021/12/29 00:02:40;;;;;;;51.58;33.13;;;;;;;;;;2074225;28;20277;-58
2021/12/29 00:03:41;;;;;;;54.20;32.25;;;;;;;;;;2079406;28;20191;-56
2021/12/29 00:04:41;;;;;;;52.30;33.40;;;;;;;;;;2057451;28;20188;-57
2021/12/29 00:05:42;;;;;;;56.15;34.30;;;;;;;;;;2060536;28;20650;-57
2021/12/29 00:06:42;;;;;;;56.73;33.10;;;;;;;;;;2075527;28;20244;-61
2021/12/29 00:07:42;;;;;;;55.70;32.10;;;;;;;;;;2075664;28;20568;-58
2021/12/29 00:08:43;;;;;;;57.57;32.37;;;;;;;;;;2074338;28;20215;-59
2021/12/29 00:09:43;;;;;;;48.00;30.20;;;;;;;;;;2078039;28;20529;-59
2021/12/29 00:10:43;;;;;;;49.25;29.45;;;;;;;;;;2076955;28;20208;-62
2021/12/29 00:11:44;;;;;;;50.17;30.40;;;;;;;;;;2076790;28;20189;-58
2021/12/29 00:12:48;;;;;;;47.75;30.30;;;;;;;;;;2068269;28;20661;-58
2021/12/29 00:13:49;;;;;;;45.80;28.20;;;;;;;;;;2070994;28;20172;-59
2021/12/29 00:14:49;;;;;;;46.47;28.97;;;;;;;;;;2076992;28;20537;-60
2021/12/29 00:15:57;;;;;;;43.80;28.33;;;;;;;;;;2076567;28;20663;-60
2021/12/29 00:16:58;;;;;;;46.17;29.55;;;;;;;;;;2077040;28;20161;-57
2021/12/29 00:17:58;;;;;;;47.25;28.38;;;;;;;;;;2078198;28;20637;-58
2021/12/29 00:18:58;;;;;;;44.53;27.73;;;;;;;;;;2075860;28;20184;-59
2021/12/29 00:19:59;;;;;;;43.08;26.65;;;;;;;;;;2068181;28;20183;-55
2021/12/29 00:21:00;;;;;;;43.53;24.60;;;;;;;;;;2070025;28;20182;-54
2021/12/29 00:22:00;;;;;;;44.08;25.25;;;;;;;;;;2077220;28;20642;-58
2021/12/29 00:23:02;;;;;;;38.45;24.67;;;;;;;;;;2076911;28;20200;-55
2021/12/29 00:24:04;;;;;;;42.92;25.73;;;;;;;;;;2075749;28;20288;-58
2021/12/29 00:25:05;;;;;;;41.65;24.40;;;;;;;;;;2068744;28;20273;-60
2021/12/29 00:26:06;;;;;;;42.05;25.45;;;;;;;;;;2065624;28;20185;-56
2021/12/29 00:27:07;;;;;;;36.55;23.50;;;;;;;;;;2075710;28;20200;-58
2021/12/29 00:28:07;;;;;;;41.07;24.47;;;;;;;;;;2064861;28;20181;-59
2021/12/29 00:29:07;;;;;;;39.58;26.05;;;;;;;;;;2059245;28;20182;-55
2021/12/29 00:30:09;;;;;;;38.22;24.10;;;;;;;;;;2060190;28;20218;-57
2021/12/29 00:31:31;;;;;;;33.03;22.13;;;;;;;;;;2057666;28;20231;-57
2021/12/29 00:33:00;;;;;;;42.75;23.77;;;;;;;;;;2076656;28;20172;-58
2021/12/29 00:34:20;;;;;;;34.80;20.27;;;;;;;;;;2069641;28;20176;-60
2021/12/29 00:35:41;;;;;;;33.03;21.45;;;;;;;;;;2067537;28;20566;-61
2021/12/29 00:37:00;;;;;;;33.70;21.55;;;;;;;;;;2070866;28;20169;-56
2021/12/29 00:38:19;;;;;;;38.30;21.75;;;;;;;;;;2076671;28;20153;-63
2021/12/29 00:39:38;;;;;;;32.22;20.13;;;;;;;;;;2067198;28;20265;-58
2021/12/29 00:40:58;;;;;;;35.25;21.77;;;;;;;;;;2063168;28;20763;-57
2021/12/29 00:42:27;;;;;;;34.33;22.33;;;;;;;;;;2077869;28;20181;-61
2021/12/29 00:43:46;;;;;;;31.85;20.88;;;;;;;;;;2077080;28;20176;-56
2021/12/29 00:44:54;;;;;;;32.25;20.45;;;;;;;;;;2075249;28;20188;-57
2021/12/29 00:45:54;;;;;;;32.67;21.15;;;;;;;;;;2077130;28;20177;-54
2021/12/29 00:46:55;;;;;;;32.33;21.10;;;;;;;;;;2080006;28;20339;-55
2021/12/29 00:47:55;;;;;;;33.20;22.83;;;;;;;;;;2077580;28;20169;-55
2021/12/29 00:48:56;;;;;;;29.80;19.98;;;;;;;;;;2079505;28;20268;-59
2021/12/29 00:49:58;;;;;;;37.90;22.13;;;;;;;;;;2077458;28;20180;-52
2021/12/29 00:50:58;;;;;;;36.78;22.40;;;;;;;;;;2078700;28;20181;-55
2021/12/29 00:52:00;;;;;;;33.38;21.90;;;;;;;;;;2078989;28;20192;-59
2021/12/29 00:53:00;;;;;;;34.15;20.33;;;;;;;;;;2078683;28;20177;-59
2021/12/29 00:54:00;;;;;;;31.08;20.85;;;;;;;;;;2078652;28;20256;-59
2021/12/29 00:55:00;;;;;;;33.85;21.70;;;;;;;;;;2078717;28;20223;-59
2021/12/29 00:56:01;;;;;;;32.85;20.95;;;;;;;;;;2078435;28;20189;-60
2021/12/29 00:57:01;;;;;;;31.25;19.25;;;;;;;;;;2067081;28;20195;-59
2021/12/29 00:58:03;;;;;;;35.80;20.58;;;;;;;;;;2067756;28;20293;-59
2021/12/29 00:59:04;;;;;;;30.40;18.90;;;;;;;;;;2077065;28;20177;-57
2021/12/29 01:00:05;;;;;;;34.50;19.87;;;;;;;;;;2068215;28;20696;-59
2021/12/29 01:01:06;;;;;;;36.05;20.13;;;;;;;;;;2068191;28;20177;-56
2021/12/29 01:02:06;;;;;;;35.15;21.73;;;;;;;;;;2077776;28;20284;-59
2021/12/29 01:03:06;;;;;;;34.88;21.13;;;;;;;;;;2078842;28;20169;-55
2021/12/29 01:04:06;;;;;;;33.85;21.02;;;;;;;;;;2077953;28;20173;-59
2021/12/29 01:05:07;;;;;;;33.67;20.92;;;;;;;;;;2080142;28;20172;-59
2021/12/29 01:06:08;;;;;;;31.40;19.30;;;;;;;;;;2077765;28;20186;-58
2021/12/29 01:07:08;;;;;;;28.27;19.20;;;;;;;;;;2067959;28;20172;-56
2021/12/29 01:08:10;;;;;;;33.10;21.47;;;;;;;;;;2067636;28;20201;-61
2021/12/29 01:09:11;;;;;;;33.40;20.27;;;;;;;;;;2076941;28;20179;-59
2021/12/29 01:10:12;;;;;;;37.30;21.45;;;;;;;;;;2076955;28;20205;-60
2021/12/29 01:11:12;;;;;;;28.60;18.38;;;;;;;;;;2072469;28;20216;-61
2021/12/29 01:12:14;;;;;;;38.75;21.70;;;;;;;;;;2076857;28;20289;-56
2021/12/29 01:13:19;;;;;;;32.60;18.42;;;;;;;;;;2070125;28;20165;-60
2021/12/29 01:14:22;;;;;;;28.98;17.98;;;;;;;;;;2065905;28;20193;-60
2021/12/29 01:15:27;;;;;;;34.88;19.30;;;;;;;;;;2079627;28;20174;-59
2021/12/29 01:17:34;;;;;;;27.02;17.17;;;;;;;;;;2075406;28;20154;-61
2021/12/29 01:18:36;;;;;;;28.55;17.10;;;;;;;;;;2077522;28;20171;-60
2021/12/29 01:19:36;;;;;;;29.92;17.40;;;;;;;;;;2079605;28;20168;-60
2021/12/29 01:20:37;;;;;;;34.13;19.30;;;;;;;;;;2067811;28;20330;-58
2021/12/29 01:21:38;;;;;;;30.08;17.63;;;;;;;;;;2070276;28;20197;-54
2021/12/29 01:22:38;;;;;;;29.33;17.20;;;;;;;;;;2076883;28;20188;-60
2021/12/29 01:23:38;;;;;;;26.48;17.20;;;;;;;;;;2069672;28;20192;-60
2021/12/29 01:24:39;;;;;;;29.85;16.20;;;;;;;;;;2067356;28;20177;-58
2021/12/29 01:25:39;;;;;;;29.60;17.55;;;;;;;;;;2078704;28;20691;-60
2021/12/29 01:26:43;;;;;;;27.10;16.98;;;;;;;;;;2065540;28;20185;-58
2021/12/29 01:27:43;;;;;;;25.90;16.45;;;;;;;;;;2068753;28;20643;-58
2021/12/29 01:28:44;;;;;;;22.48;15.25;;;;;;;;;;2076205;28;20256;-58
2021/12/29 01:29:46;;;;;;;25.30;15.90;;;;;;;;;;2077030;28;20188;-58
2021/12/29 01:30:46;;;;;;;29.25;17.17;;;;;;;;;;2076391;28;20242;-59
2021/12/29 01:31:46;;;;;;;25.75;14.90;;;;;;;;;;2076597;28;20721;-55
2021/12/29 01:32:47;;;;;;;23.40;15.10;;;;;;;;;;2077490;28;20288;-61
2021/12/29 01:33:47;;;;;;;25.52;16.15;;;;;;;;;;2069489;28;20168;-55
2021/12/29 01:34:47;;;;;;;22.42;11.30;;;;;;;;;;2065261;28;20521;-61
2021/12/29 01:35:48;;;;;;;26.02;15.55;;;;;;;;;;2076711;28;20180;-58
2021/12/29 01:36:48;;;;;;;23.15;14.32;;;;;;;;;;2078287;28;20218;-56
2021/12/29 01:37:48;;;;;;;20.58;13.55;;;;;;;;;;2078193;28;20188;-59
2021/12/29 01:38:49;;;;;;;19.00;13.00;;;;;;;;;;2077007;28;20175;-56
2021/12/29 01:39:49;;;;;;;20.40;11.98;;;;;;;;;;2077410;28;20539;-54
2021/12/29 01:40:49;;;;;;;19.75;14.00;;;;;;;;;;2067518;28;20188;-54
2021/12/29 01:41:51;;;;;;;19.08;12.95;;;;;;;;;;2067163;28;20219;-57
2021/12/29 01:42:51;;;;;;;20.95;12.93;;;;;;;;;;2076783;28;20176;-58
2021/12/29 01:43:51;;;;;;;17.98;12.80;;;;;;;;;;2069651;28;20196;-59
2021/12/29 01:44:52;;;;;;;19.13;12.20;;;;;;;;;;2067716;28;20532;-61
2021/12/29 01:45:52;;;;;;;18.50;12.57;;;;;;;;;;2070023;28;20228;-59
2021/12/29 01:46:53;;;;;;;17.10;11.63;;;;;;;;;;2067406;28;20169;-60
2021/12/29 01:47:54;;;;;;;16.77;11.25;;;;;;;;;;2078285;28;20208;-55
2021/12/29 01:48:55;;;;;;;19.33;11.65;;;;;;;;;;2079045;28;20184;-59
2021/12/29 01:49:56;;;;;;;16.70;11.02;;;;;;;;;;2079074;28;20199;-60
2021/12/29 01:50:57;;;;;;;14.95;10.65;;;;;;;;;;2078412;28;20201;-55
2021/12/29 01:52:11;;;;;;;18.40;10.45;;;;;;;;;;2077861;28;20188;-60
2021/12/29 01:53:21;;;;;;;15.25;10.32;;;;;;;;;;2078247;28;20168;-58
2021/12/29 01:54:24;;;;;;;14.90;10.43;;;;;;;;;;2075954;28;20665;-59
2021/12/29 01:55:27;;;;;;;15.60;10.80;;;;;;;;;;2069894;28;20165;-59
2021/12/29 01:56:28;;;;;;;16.77;10.13;;;;;;;;;;2068258;28;20667;-60
2021/12/29 01:57:28;;;;;;;14.73;9.82;;;;;;;;;;2078351;28;20169;-57
2021/12/29 01:58:29;;;;;;;13.30;9.80;;;;;;;;;;2077976;28;20223;-55
2021/12/29 01:59:29;;;;;;;15.23;9.57;;;;;;;;;;2078294;28;20181;-59
2021/12/29 02:00:31;;;;;;;13.77;9.75;;;;;;;;;;2076375;28;20169;-57
2021/12/29 02:01:31;;;;;;;13.52;9.10;;;;;;;;;;2078021;28;20284;-60
2021/12/29 02:02:31;;;;;;;14.38;8.88;;;;;;;;;;2070106;28;20185;-55
2021/12/29 02:03:31;;;;;;;14.40;9.20;;;;;;;;;;2068601;28;20177;-59
2021/12/29 02:04:32;;;;;;;12.45;8.98;;;;;;;;;;2070387;28;20609;-58
2021/12/29 02:05:32;;;;;;;15.93;9.50;;;;;;;;;;2065995;28;20189;-59
2021/12/29 02:06:33;;;;;;;12.93;8.75;;;;;;;;;;2074447;28;20192;-57
2021/12/29 02:07:33;;;;;;;14.27;9.07;;;;;;;;;;2074441;28;20253;-59
2021/12/29 02:08:35;;;;;;;10.85;8.60;;;;;;;;;;2075141;28;20181;-58
2021/12/29 02:09:36;;;;;;;9.35;7.90;;;;;;;;;;2078631;28;20601;-60
2021/12/29 02:10:43;;;;;;;12.10;7.82;;;;;;;;;;2075698;28;20315;-55
2021/12/29 02:11:45;;;;;;;16.52;7.65;;;;;;;;;;2076688;28;20192;-59
2021/12/29 02:12:45;;;;;;;11.93;8.23;;;;;;;;;;2072879;28;20173;-61
2021/12/29 02:13:45;;;;;;;13.65;8.07;;;;;;;;;;2077435;28;20449;-55
2021/12/29 02:14:46;;;;;;;9.90;7.38;;;;;;;;;;2077648;28;20901;-59
2021/12/29 02:15:46;;;;;;;11.38;7.35;;;;;;;;;;2076815;28;20271;-57
2021/12/29 02:16:46;;;;;;;11.60;7.18;;;;;;;;;;2076650;28;20212;-60
2021/12/29 02:17:49;;;;;;;12.32;7.15;;;;;;;;;;2076957;28;20697;-61
2021/12/29 02:18:50;;;;;;;14.60;7.90;;;;;;;;;;2067739;28;20593;-58
2021/12/29 02:19:52;;;;;;;13.55;7.70;;;;;;;;;;2068157;28;20524;-61
2021/12/29 02:20:55;;;;;;;10.73;6.75;;;;;;;;;;2075591;28;20204;-56
2021/12/29 02:22:19;;;;;;;9.68;6.63;;;;;;;;;;2066235;28;20591;-59
2021/12/29 02:23:26;;;;;;;16.05;7.05;;;;;;;;;;2061646;28;20654;-58
2021/12/29 02:24:36;;;;;;;18.50;7.35;;;;;;;;;;2075562;28;20188;-59
2021/12/29 02:25:48;;;;;;;12.57;6.70;;;;;;;;;;2077357;28;20692;-54
2021/12/29 02:26:50;;;;;;;14.00;7.22;;;;;;;;;;2075475;28;20172;-57
2021/12/29 02:27:52;;;;;;;15.90;7.70;;;;;;;;;;2075262;28;20219;-59
2021/12/29 02:28:55;;;;;;;11.50;6.15;;;;;;;;;;2076126;28;20189;-57
2021/12/29 02:29:55;;;;;;;14.32;7.63;;;;;;;;;;2074382;28;20169;-56
2021/12/29 02:30:56;;;;;;;13.30;7.60;;;;;;;;;;2069984;28;20196;-59
2021/12/29 02:31:56;;;;;;;14.10;6.28;;;;;;;;;;2076945;28;20559;-61
2021/12/29 02:33:00;;;;;;;12.73;7.18;;;;;;;;;;2074946;28;20268;-59
2021/12/29 02:34:01;;;;;;;16.48;8.02;;;;;;;;;;2065600;28;20233;-58
2021/12/29 02:35:01;;;;;;;14.75;7.85;;;;;;;;;;2067065;28;20416;-58
2021/12/29 02:36:03;;;;;;;15.02;7.30;;;;;;;;;;2075490;28;20192;-57
2021/12/29 02:37:04;;;;;;;10.65;6.55;;;;;;;;;;2075968;28;20256;-59
2021/12/29 02:38:08;;;;;;;16.00;6.32;;;;;;;;;;2075212;28;20260;-58
2021/12/29 02:39:10;;;;;;;12.15;7.13;;;;;;;;;;2074786;28;20165;-61
2021/12/29 02:40:10;;;;;;;15.18;6.53;;;;;;;;;;2066954;28;20269;-57
2021/12/29 02:42:21;;;;;;;10.52;6.50;;;;;;;;;;2068572;28;20229;-55
2021/12/29 02:43:21;;;;;;;9.75;5.93;;;;;;;;;;2068787;28;20182;-52
2021/12/29 02:44:27;;;;;;;15.23;7.53;;;;;;;;;;2069158;28;20219;-53
2021/12/29 02:45:29;;;;;;;11.77;6.43;;;;;;;;;;2075414;28;20185;-57
2021/12/29 02:46:32;;;;;;;12.45;7.35;;;;;;;;;;2077065;28;20560;-57
2021/12/29 02:47:32;;;;;;;13.68;6.82;;;;;;;;;;2075487;28;20183;-58
2021/12/29 02:48:37;;;;;;;9.88;5.70;;;;;;;;;;2076207;28;20181;-60
2021/12/29 02:49:37;;;;;;;10.73;6.65;;;;;;;;;;2066566;28;20165;-57
2021/12/29 02:50:38;;;;;;;14.07;7.43;;;;;;;;;;2067123;28;20652;-58
2021/12/29 02:51:38;;;;;;;13.50;6.78;;;;;;;;;;2074876;28;20200;-54
2021/12/29 02:52:38;;;;;;;14.00;7.13;;;;;;;;;;2069116;28;20177;-59
2021/12/29 02:53:39;;;;;;;12.88;7.32;;;;;;;;;;2058390;28;20205;-61
2021/12/29 02:54:40;;;;;;;11.05;6.68;;;;;;;;;;2061126;28;20262;-59
2021/12/29 02:55:40;;;;;;;17.05;7.22;;;;;;;;;;2069003;28;20518;-52
2021/12/29 02:56:40;;;;;;;14.55;7.78;;;;;;;;;;2067843;28;20183;-55
2021/12/29 02:57:40;;;;;;;11.40;7.45;;;;;;;;;;2066455;28;20172;-54
2021/12/29 02:58:41;;;;;;;11.70;7.38;;;;;;;;;;2066178;28;20192;-55
2021/12/29 02:59:41;;;;;;;14.23;6.53;;;;;;;;;;2066491;28;20308;-59
2021/12/29 03:00:41;;;;;;;15.00;7.15;;;;;;;;;;2069559;28;20188;-58
2021/12/29 03:01:42;;;;;;;15.55;7.13;;;;;;;;;;2069484;28;20196;-56
2021/12/29 03:02:42;;;;;;;13.05;7.22;;;;;;;;;;2067475;28;20204;-55
2021/12/29 03:03:43;;;;;;;13.95;7.15;;;;;;;;;;2068937;28;20173;-57
2021/12/29 03:04:43;;;;;;;11.88;7.20;;;;;;;;;;2064073;28;20189;-57
2021/12/29 03:05:44;;;;;;;15.60;7.72;;;;;;;;;;2069656;28;20177;-55
2021/12/29 03:06:44;;;;;;;12.10;6.47;;;;;;;;;;2059866;28;20566;-58
2021/12/29 03:07:44;;;;;;;9.68;6.18;;;;;;;;;;2052043;28;20226;-57
2021/12/29 03:08:45;;;;;;;11.65;6.50;;;;;;;;;;2060789;28;20178;-54
2021/12/29 03:09:45;;;;;;;9.63;6.32;;;;;;;;;;2068598;28;20284;-52
2021/12/29 03:10:46;;;;;;;14.63;6.90;;;;;;;;;;2067380;28;20251;-55
2021/12/29 03:11:47;;;;;;;15.40;7.18;;;;;;;;;;2068873;28;20233;-56
2021/12/29 03:12:47;;;;;;;13.30;7.25;;;;;;;;;;2065579;28;20543;-53
2021/12/29 03:13:47;;;;;;;13.40;6.35;;;;;;;;;;2068584;28;20169;-56
2021/12/29 03:14:52;;;;;;;12.88;6.82;;;;;;;;;;2067504;28;20311;-54
2021/12/29 03:15:53;;;;;;;13.68;6.78;;;;;;;;;;2068629;28;20544;-51
2021/12/29 03:16:53;;;;;;;12.90;7.15;;;;;;;;;;2065200;28;20173;-56
2021/12/29 03:17:53;;;;;;;14.15;7.20;;;;;;;;;;2069514;28;20178;-55
2021/12/29 03:18:53;;;;;;;14.40;6.60;;;;;;;;;;2068751;28;20541;-55
2021/12/29 03:19:54;;;;;;;11.93;7.28;;;;;;;;;;2066959;28;20839;-54
2021/12/29 03:20:54;;;;;;;10.18;6.40;;;;;;;;;;2068753;28;20666;-57
2021/12/29 03:21:55;;;;;;;12.02;6.97;;;;;;;;;;2070025;28;20325;-55
2021/12/29 03:22:55;;;;;;;11.60;6.80;;;;;;;;;;2067284;28;20264;-56
2021/12/29 03:23:56;;;;;;;9.50;6.68;;;;;;;;;;2069071;28;20518;-53
2021/12/29 03:24:56;;;;;;;13.82;7.70;;;;;;;;;;2067335;28;20643;-54
2021/12/29 03:25:56;;;;;;;12.60;7.18;;;;;;;;;;2069163;28;20186;-50
2021/12/29 03:26:57;;;;;;;10.90;6.65;;;;;;;;;;2066430;28;20176;-54
2021/12/29 03:27:59;;;;;;;15.13;7.38;;;;;;;;;;2058995;28;20531;-52
2021/12/29 03:29:00;;;;;;;10.05;6.85;;;;;;;;;;2058244;28;20187;-57
2021/12/29 03:30:01;;;;;;;11.85;7.20;;;;;;;;;;2067597;28;20204;-52
2021/12/29 03:31:01;;;;;;;11.48;7.05;;;;;;;;;;2067732;28;20201;-60
2021/12/29 03:32:07;;;;;;;13.05;6.97;;;;;;;;;;2067328;28;20296;-52
2021/12/29 03:33:09;;;;;;;15.68;7.53;;;;;;;;;;2068315;28;20220;-55
2021/12/29 03:34:09;;;;;;;15.23;7.50;;;;;;;;;;2069005;28;20182;-59
2021/12/29 03:35:10;;;;;;;13.88;7.35;;;;;;;;;;2067234;28;20187;-56
2021/12/29 03:36:11;;;;;;;14.43;7.43;;;;;;;;;;2068038;28;20518;-54
2021/12/29 03:37:11;;;;;;;14.90;7.35;;;;;;;;;;2065783;28;20173;-54
2021/12/29 03:38:13;;;;;;;12.30;6.90;;;;;;;;;;2069329;28;20630;-54
2021/12/29 03:39:13;;;;;;;10.75;7.05;;;;;;;;;;2063857;28;20560;-56
2021/12/29 03:40:14;;;;;;;13.35;7.82;;;;;;;;;;2060789;28;20202;-52
2021/12/29 03:41:18;;;;;;;13.68;7.60;;;;;;;;;;2061473;28;20240;-58
2021/12/29 03:42:18;;;;;;;14.65;8.38;;;;;;;;;;2065742;28;20280;-56
2021/12/29 03:43:18;;;;;;;15.18;8.38;;;;;;;;;;2068041;28;20384;-56
2021/12/29 03:44:19;;;;;;;11.68;7.40;;;;;;;;;;2066698;28;20170;-56
2021/12/29 03:45:19;;;;;;;9.93;7.50;;;;;;;;;;2068673;28;20554;-54
2021/12/29 03:46:20;;;;;;;14.32;7.57;;;;;;;;;;2067632;28;20298;-53
2021/12/29 03:47:20;;;;;;;10.07;7.20;;;;;;;;;;2068947;28;20172;-51
2021/12/29 03:48:21;;;;;;;15.90;8.43;;;;;;;;;;2066625;28;20185;-55
2021/12/29 03:49:21;;;;;;;12.83;8.03;;;;;;;;;;2068946;28;20173;-56
2021/12/29 03:50:22;;;;;;;12.50;8.05;;;;;;;;;;2068887;28;20213;-55
2021/12/29 03:51:22;;;;;;;14.30;8.38;;;;;;;;;;2068893;28;20223;-58
2021/12/29 03:52:23;;;;;;;8.05;6.45;;;;;;;;;;2069600;28;20543;-56
2021/12/29 03:53:23;;;;;;;10.90;7.70;;;;;;;;;;2068232;28;20248;-58
2021/12/29 03:54:23;;;;;;;10.50;7.47;;;;;;;;;;2064662;28;20217;-58
2021/12/29 03:55:24;;;;;;;16.80;7.88;;;;;;;;;;2071526;28;20216;-58
2021/12/29 03:56:24;;;;;;;12.32;7.28;;;;;;;;;;2069863;28;20200;-57
2021/12/29 03:57:24;;;;;;;13.63;7.95;;;;;;;;;;2068870;28;20168;-60
2021/12/29 03:58:25;;;;;;;11.43;6.70;;;;;;;;;;2069426;28;20192;-58
2021/12/29 03:59:26;;;;;;;13.60;8.30;;;;;;;;;;2066343;28;20216;-60
2021/12/29 04:00:26;;;;;;;11.60;6.78;;;;;;;;;;2069066;28;20250;-58
2021/12/29 04:01:26;;;;;;;13.77;7.97;;;;;;;;;;2071320;28;20193;-57
2021/12/29 04:02:26;;;;;;;12.00;7.30;;;;;;;;;;2067965;28;20208;-60
2021/12/29 04:03:27;;;;;;;11.85;7.85;;;;;;;;;;2069826;28;20169;-60
2021/12/29 04:04:27;;;;;;;10.15;7.05;;;;;;;;;;2070621;28;20268;-59
2021/12/29 04:05:27;;;;;;;9.38;7.57;;;;;;;;;;2069406;28;20185;-60
2021/12/29 04:06:28;;;;;;;9.80;6.82;;;;;;;;;;2068917;28;20212;-60
2021/12/29 04:07:28;;;;;;;7.70;5.90;;;;;;;;;;2069712;28;20204;-56
2021/12/29 04:08:28;;;;;;;8.90;6.57;;;;;;;;;;2057607;28;20220;-58
2021/12/29 04:09:29;;;;;;;11.40;6.80;;;;;;;;;;2062224;28;20215;-58
2021/12/29 04:10:29;;;;;;;9.98;6.82;;;;;;;;;;2069022;28;20200;-56
2021/12/29 04:11:29;;;;;;;9.55;6.60;;;;;;;;;;2066213;28;20181;-58
2021/12/29 04:12:30;;;;;;;9.68;6.45;;;;;;;;;;2071116;28;20200;-60
2021/12/29 04:13:30;;;;;;;10.43;6.72;;;;;;;;;;2060295;28;20178;-60
2021/12/29 04:14:30;;;;;;;12.60;6.97;;;;;;;;;;2063961;28;20213;-59
2021/12/29 04:15:31;;;;;;;8.00;6.03;;;;;;;;;;2070328;28;20268;-56
2021/12/29 04:16:36;;;;;;;10.45;6.38;;;;;;;;;;2067792;28;20161;-59
2021/12/29 04:17:37;;;;;;;7.53;5.57;;;;;;;;;;2071640;28;20269;-61
2021/12/29 04:18:45;;;;;;;7.68;5.95;;;;;;;;;;2068255;28;20361;-59
2021/12/29 04:21:04;;;;;;;9.63;6.25;;;;;;;;;;2072029;28;20219;-59
2021/12/29 04:22:07;;;;;;;8.18;6.10;;;;;;;;;;2068723;28;20205;-55
2021/12/29 04:23:08;;;;;;;11.18;6.30;;;;;;;;;;2073067;28;20658;-59
2021/12/29 04:24:09;;;;;;;8.73;5.72;;;;;;;;;;2071052;28;20208;-55
2021/12/29 04:25:09;;;;;;;9.85;6.32;;;;;;;;;;2071765;28;20176;-58
2021/12/29 04:26:10;;;;;;;8.77;6.13;;;;;;;;;;2074202;28;20196;-59
2021/12/29 04:27:10;;;;;;;7.28;5.63;;;;;;;;;;2069911;28;20680;-62
2021/12/29 04:28:15;;;;;;;9.63;5.57;;;;;;;;;;2073919;28;20204;-60
2021/12/29 04:29:15;;;;;;;8.70;6.10;;;;;;;;;;2066884;28;20181;-57
2021/12/29 04:30:15;;;;;;;9.57;6.10;;;;;;;;;;2069193;28;20180;-60
2021/12/29 04:31:16;;;;;;;8.23;6.30;;;;;;;;;;2072236;28;20211;-55
2021/12/29 04:32:17;;;;;;;10.48;6.60;;;;;;;;;;2072702;28;20216;-59
2021/12/29 04:33:17;;;;;;;10.02;6.55;;;;;;;;;;2071393;28;20263;-61
2021/12/29 04:34:18;;;;;;;7.47;6.18;;;;;;;;;;2072256;28;20563;-59
2021/12/29 04:35:18;;;;;;;8.73;6.05;;;;;;;;;;2071160;28;20169;-58
2021/12/29 04:36:24;;;;;;;7.22;5.78;;;;;;;;;;2070684;28;20177;-58
2021/12/29 04:37:24;;;;;;;10.35;7.38;;;;;;;;;;2061362;28;20554;-58
2021/12/29 04:38:25;;;;;;;8.98;7.10;;;;;;;;;;2063111;28;20178;-60
2021/12/29 04:39:25;;;;;;;9.38;6.65;;;;;;;;;;2072552;28;20187;-57
2021/12/29 04:40:25;;;;;;;9.48;7.20;;;;;;;;;;2069885;28;20263;-61
2021/12/29 04:41:25;;;;;;;8.90;6.63;;;;;;;;;;2063426;28;20182;-60
2021/12/29 04:42:26;;;;;;;17.55;8.18;;;;;;;;;;2062262;28;20579;-61
2021/12/29 04:43:26;;;;;;;12.98;6.82;;;;;;;;;;2070785;28;20216;-58
2021/12/29 04:44:27;;;;;;;11.85;7.60;;;;;;;;;;2073322;28;20199;-58
2021/12/29 04:45:27;;;;;;;12.57;7.32;;;;;;;;;;2063742;28;20188;-58
2021/12/29 04:46:36;;;;;;;13.27;7.30;;;;;;;;;;2053803;28;20206;-60
2021/12/29 04:47:40;;;;;;;11.27;7.15;;;;;;;;;;2064718;28;20549;-60
2021/12/29 04:48:46;;;;;;;10.93;7.10;;;;;;;;;;2068989;28;20181;-60
2021/12/29 04:49:48;;;;;;;13.05;7.30;;;;;;;;;;2067890;28;20717;-60
2021/12/29 04:50:53;;;;;;;11.27;7.55;;;;;;;;;;2065520;28;20186;-56
2021/12/29 04:52:03;;;;;;;12.55;7.90;;;;;;;;;;2060961;28;20196;-57
2021/12/29 04:53:05;;;;;;;10.95;7.25;;;;;;;;;;2069719;28;20181;-57
2021/12/29 04:54:06;;;;;;;11.07;7.03;;;;;;;;;;2071843;28;20165;-57
2021/12/29 04:55:07;;;;;;;14.68;8.05;;;;;;;;;;2068637;28;20185;-60
2021/12/29 04:56:08;;;;;;;10.10;7.25;;;;;;;;;;2071391;28;20212;-55
2021/12/29 04:57:08;;;;;;;14.00;8.75;;;;;;;;;;2061425;28;20694;-59
2021/12/29 04:58:08;;;;;;;12.80;8.05;;;;;;;;;;2059802;28;20568;-59
2021/12/29 04:59:08;;;;;;;11.68;7.60;;;;;;;;;;2069220;28;20268;-59
2021/12/29 05:00:09;;;;;;;14.20;8.93;;;;;;;;;;2059847;28;20566;-61
2021/12/29 05:01:09;;;;;;;12.60;8.70;;;;;;;;;;2058439;28;20247;-54
2021/12/29 05:02:09;;;;;;;16.38;8.88;;;;;;;;;;2071000;28;20240;-57
2021/12/29 05:03:10;;;;;;;14.07;9.23;;;;;;;;;;2065436;28;20269;-53
2021/12/29 05:04:12;;;;;;;15.40;9.48;;;;;;;;;;2064378;28;20169;-54
2021/12/29 05:09:05;;;;;;;15.10;9.48;;;;;;;;;;2068643;28;20195;-59
2021/12/29 05:10:06;;;;;;;16.63;8.93;;;;;;;;;;2068561;28;20178;-56
2021/12/29 05:11:08;;;;;;;15.57;9.45;;;;;;;;;;2069735;28;20259;-52
2021/12/29 05:12:08;;;;;;;15.77;9.50;;;;;;;;;;2070310;28;20194;-56
2021/12/29 05:13:08;;;;;;;17.65;10.77;;;;;;;;;;2062417;28;20298;-61
2021/12/29 05:14:08;;;;;;;17.92;9.90;;;;;;;;;;2068773;28;20224;-55
2021/12/29 05:15:09;;;;;;;19.13;10.80;;;;;;;;;;2068046;28;20666;-51
2021/12/29 05:16:09;;;;;;;19.05;10.52;;;;;;;;;;2069081;28;20183;-53
2021/12/29 05:17:10;;;;;;;19.55;11.50;;;;;;;;;;2061063;28;20181;-56
2021/12/29 05:18:10;;;;;;;19.10;11.70;;;;;;;;;;2061669;28;20548;-58
2021/12/29 05:19:11;;;;;;;21.75;11.85;;;;;;;;;;2057473;28;20206;-55
2021/12/29 05:20:11;;;;;;;21.02;12.52;;;;;;;;;;2061975;28;20232;-52
2021/12/29 05:21:11;;;;;;;25.60;12.68;;;;;;;;;;2069452;28;20202;-55
2021/12/29 05:22:12;;;;;;;23.05;12.10;;;;;;;;;;2061617;28;20197;-57
2021/12/29 05:23:12;;;;;;;23.30;12.95;;;;;;;;;;2060918;28;20198;-54
2021/12/29 05:24:12;;;;;;;20.85;12.25;;;;;;;;;;2070300;28;20255;-58
2021/12/29 05:25:12;;;;;;;24.08;12.68;;;;;;;;;;2069138;28;20269;-54
2021/12/29 05:26:13;;;;;;;22.23;11.30;;;;;;;;;;2070660;28;20204;-51
2021/12/29 05:27:13;;;;;;;19.45;11.02;;;;;;;;;;2067195;28;20268;-54
2021/12/29 05:28:13;;;;;;;27.33;14.43;;;;;;;;;;2070559;28;20195;-55
2021/12/29 05:29:14;;;;;;;24.98;13.18;;;;;;;;;;2060777;28;20174;-52
2021/12/29 05:30:14;;;;;;;23.08;13.65;;;;;;;;;;2069691;28;20184;-55
2021/12/29 05:31:14;;;;;;;26.60;13.82;;;;;;;;;;2060035;28;20699;-48
2021/12/29 05:32:15;;;;;;;24.63;13.00;;;;;;;;;;2052538;28;20214;-58
2021/12/29 05:33:15;;;;;;;23.48;13.52;;;;;;;;;;2062390;28;20205;-57
2021/12/29 05:34:15;;;;;;;23.90;12.65;;;;;;;;;;2070502;28;20244;-57
2021/12/29 05:35:16;;;;;;;26.40;14.35;;;;;;;;;;2068524;28;20196;-50
2021/12/29 05:36:16;;;;;;;21.40;13.48;;;;;;;;;;2068621;28;20822;-52
2021/12/29 05:37:16;;;;;;;24.80;14.73;;;;;;;;;;2069147;28;20295;-51
2021/12/29 05:38:17;;;;;;;22.20;14.48;;;;;;;;;;2070243;28;20172;-54
2021/12/29 05:39:17;;;;;;;28.75;15.32;;;;;;;;;;2065572;28;20165;-61
2021/12/29 05:40:17;;;;;;;26.92;15.05;;;;;;;;;;2070138;28;20227;-59
2021/12/29 05:41:18;;;;;;;28.77;15.68;;;;;;;;;;2069197;28;20177;-60
2021/12/29 05:42:18;;;;;;;22.92;14.45;;;;;;;;;;2062048;28;20210;-54
2021/12/29 05:43:19;;;;;;;24.80;14.80;;;;;;;;;;2061972;28;20169;-56
2021/12/29 05:44:19;;;;;;;24.52;14.57;;;;;;;;;;2070152;28;20180;-55
2021/12/29 05:45:19;;;;;;;24.02;15.10;;;;;;;;;;2067619;28;20193;-57
2021/12/29 05:46:19;;;;;;;21.58;14.05;;;;;;;;;;2070141;28;20231;-58
2021/12/29 05:47:20;;;;;;;24.20;14.98;;;;;;;;;;2067187;28;20603;-56
2021/12/29 05:48:20;;;;;;;23.00;13.85;;;;;;;;;;2068302;28;20210;-53
2021/12/29 05:49:20;;;;;;;24.70;15.25;;;;;;;;;;2069834;28;20183;-54
2021/12/29 05:50:21;;;;;;;24.80;15.10;;;;;;;;;;2069809;28;20169;-56
2021/12/29 05:51:21;;;;;;;30.75;16.40;;;;;;;;;;2067895;28;20653;-51
2021/12/29 05:52:22;;;;;;;26.30;16.73;;;;;;;;;;2068760;28;20174;-54
2021/12/29 05:53:22;;;;;;;22.83;13.82;;;;;;;;;;2067949;28;20212;-58
2021/12/29 05:54:22;;;;;;;23.13;14.57;;;;;;;;;;2070583;28;20544;-60
2021/12/29 05:55:23;;;;;;;27.67;16.00;;;;;;;;;;2067451;28;20170;-56
2021/12/29 05:56:23;;;;;;;26.23;15.40;;;;;;;;;;2070418;28;20196;-55
2021/12/29 05:57:24;;;;;;;28.23;14.63;;;;;;;;;;2070959;28;20232;-53
2021/12/29 05:58:24;;;;;;;24.35;15.82;;;;;;;;;;2068818;28;20174;-53
2021/12/29 05:59:24;;;;;;;28.85;16.48;;;;;;;;;;2059667;28;20169;-58
2021/12/29 06:00:26;;;;;;;27.42;15.32;;;;;;;;;;2060639;28;20253;-54
2021/12/29 06:01:28;;;;;;;27.15;16.98;;;;;;;;;;2071123;28;20265;-53
2021/12/29 06:02:29;;;;;;;26.13;16.08;;;;;;;;;;2068836;28;20242;-56
2021/12/29 06:03:29;;;;;;;24.63;16.00;;;;;;;;;;2066068;28;20228;-58
2021/12/29 06:04:30;;;;;;;24.85;14.52;;;;;;;;;;2066416;28;20173;-55
2021/12/29 06:05:30;;;;;;;29.48;15.70;;;;;;;;;;2059622;28;20583;-55
2021/12/29 06:06:31;;;;;;;26.48;15.63;;;;;;;;;;2062024;28;20174;-59
2021/12/29 06:07:31;;;;;;;23.15;14.02;;;;;;;;;;2060236;28;20680;-57
2021/12/29 06:08:31;;;;;;;25.45;16.08;;;;;;;;;;2065251;28;20170;-55
2021/12/29 06:09:31;;;;;;;28.42;15.45;;;;;;;;;;2068417;28;20256;-53
2021/12/29 06:10:32;;;;;;;26.05;14.57;;;;;;;;;;2068358;28;20196;-52